createdAt,value
2023-02-09T00:02:26.026Z,80.53
2023-02-09T00:05:28.967Z,80.84
2023-02-09T00:08:33.252Z,80.90
2023-02-09T00:11:55.118Z,81.35
2023-02-09T00:14:58.279Z,81.18
2023-02-09T00:18:01.114Z,81.23
2023-02-09T00:21:09.105Z,81.22
2023-02-09T00:24:12.961Z,80.97
2023-02-09T00:27:15.986Z,80.88
2023-02-09T00:30:19.192Z,80.94
2023-02-09T00:33:22.534Z,80.80
2023-02-09T00:36:25.392Z,80.86
2023-02-09T00:39:29.371Z,80.79
2023-02-09T00:42:32.222Z,81.00
2023-02-09T00:45:35.531Z,81.04
2023-02-09T00:48:38.554Z,80.82
2023-02-09T00:51:41.578Z,81.18
2023-02-09T00:54:44.547Z,81.09
2023-02-09T00:57:47.666Z,80.92
2023-02-09T01:00:50.773Z,81.31
2023-02-09T01:03:53.793Z,81.24
2023-02-09T01:06:56.764Z,80.96
2023-02-09T01:10:00.344Z,81.37
2023-02-09T01:13:03.559Z,81.04
2023-02-09T01:16:12.526Z,80.77
2023-02-09T01:19:15.578Z,80.99
2023-02-09T01:22:18.650Z,81.10
2023-02-09T01:25:21.598Z,80.76
2023-02-09T01:28:24.553Z,80.72
2023-02-09T01:31:33.793Z,80.63
2023-02-09T01:34:37.201Z,80.68
2023-02-09T01:37:40.202Z,80.90
2023-02-09T01:40:50.347Z,80.80
2023-02-09T01:43:59.369Z,80.95
2023-02-09T01:47:02.220Z,80.92
2023-02-09T01:50:05.462Z,81.34
2023-02-09T01:53:08.887Z,81.60
2023-02-09T01:56:18.644Z,81.45
2023-02-09T01:59:21.750Z,81.68
2023-02-09T02:02:25.449Z,81.38
2023-02-09T02:05:29.496Z,81.47
2023-02-09T02:08:39.074Z,81.45
2023-02-09T02:11:45.422Z,81.29
2023-02-09T02:14:48.198Z,81.29
2023-02-09T02:18:41.781Z,81.16
2023-02-09T02:22:08.782Z,81.20
2023-02-09T02:25:31.053Z,81.03
2023-02-09T02:28:52.185Z,81.39
2023-02-09T02:32:21.696Z,81.17
2023-02-09T02:35:37.855Z,81.18
2023-02-09T02:39:20.558Z,81.02
2023-02-09T02:42:50.345Z,80.78
2023-02-09T02:46:02.688Z,80.44
2023-02-09T02:49:19.083Z,80.20
2023-02-09T02:52:22.077Z,80.27
2023-02-09T02:55:30.477Z,80.44
2023-02-09T02:58:36.017Z,80.79
2023-02-09T03:02:12.674Z,80.83
2023-02-09T03:05:17.226Z,80.68
2023-02-09T03:08:20.423Z,80.88
2023-02-09T03:11:27.822Z,80.87
2023-02-09T03:14:45.655Z,80.50
2023-02-09T03:18:12.485Z,80.56
2023-02-09T03:21:20.471Z,80.55
2023-02-09T03:24:43.128Z,80.65
2023-02-09T03:28:01.233Z,80.76
2023-02-09T03:31:06.037Z,80.53
2023-02-09T03:34:10.826Z,80.63
2023-02-09T03:37:14.003Z,80.68
2023-02-09T03:40:19.430Z,80.44
2023-02-09T03:43:42.313Z,80.44
2023-02-09T03:46:45.374Z,80.47
2023-02-09T03:49:48.245Z,80.35
2023-02-09T03:52:51.595Z,80.22
2023-02-09T03:55:54.411Z,79.84
2023-02-09T03:58:57.244Z,79.98
2023-02-09T04:02:00.306Z,79.74
2023-02-09T04:05:05.456Z,80.08
2023-02-09T04:08:08.903Z,79.90
2023-02-09T04:11:11.909Z,79.99
2023-02-09T04:14:15.423Z,79.99
2023-02-09T04:17:18.512Z,80.01
2023-02-09T04:20:21.486Z,80.07
2023-02-09T04:23:24.392Z,79.91
2023-02-09T04:26:27.278Z,80.16
2023-02-09T04:29:30.116Z,79.96
2023-02-09T04:32:33.079Z,80.15
2023-02-09T04:35:35.912Z,80.00
2023-02-09T04:38:38.967Z,79.95
2023-02-09T04:41:42.010Z,79.95
2023-02-09T04:44:45.004Z,79.89
2023-02-09T04:47:47.938Z,80.13
2023-02-09T04:50:51.166Z,79.98
2023-02-09T04:53:54.035Z,80.51
2023-02-09T04:57:15.446Z,80.12
2023-02-09T05:00:18.648Z,80.50
2023-02-09T05:03:23.664Z,80.21
2023-02-09T05:06:27.900Z,80.14
2023-02-09T05:09:30.749Z,80.08
2023-02-09T05:12:34.005Z,80.44
2023-02-09T05:15:36.965Z,80.18
2023-02-09T05:19:33.642Z,79.71
2023-02-09T05:22:59.454Z,79.73
2023-02-09T05:26:18.118Z,79.85
2023-02-09T05:29:37.426Z,79.74
2023-02-09T05:32:55.984Z,79.74
2023-02-09T05:36:16.641Z,79.70
2023-02-09T05:39:28.427Z,79.51
2023-02-09T05:42:31.241Z,79.45
2023-02-09T05:45:34.172Z,79.74
2023-02-09T05:48:37.052Z,79.37
2023-02-09T05:51:40.057Z,79.70
2023-02-09T05:54:43.536Z,79.64
2023-02-09T05:57:46.536Z,79.29
2023-02-09T06:00:49.465Z,79.54
2023-02-09T06:03:52.683Z,79.95
2023-02-09T06:06:55.967Z,80.14
2023-02-09T06:09:58.803Z,80.07
2023-02-09T06:13:01.692Z,80.09
2023-02-09T06:16:04.712Z,79.83
2023-02-09T06:19:12.732Z,79.78
2023-02-09T06:22:15.688Z,79.78
2023-02-09T06:25:18.686Z,79.80
2023-02-09T06:29:02.132Z,80.00
2023-02-09T06:32:15.321Z,79.75
2023-02-09T06:35:18.327Z,80.15
2023-02-09T06:38:21.113Z,80.17
2023-02-09T06:41:23.995Z,80.18
2023-02-09T06:44:26.902Z,80.09
2023-02-09T06:47:29.795Z,80.19
2023-02-09T06:50:33.172Z,80.01
2023-02-09T06:53:36.856Z,79.79
2023-02-09T06:56:39.849Z,79.55
2023-02-09T06:59:42.772Z,79.23
2023-02-09T07:02:45.813Z,79.06
2023-02-09T07:05:49.052Z,78.80
2023-02-09T07:08:51.896Z,78.77
2023-02-09T07:11:55.155Z,78.32
2023-02-09T07:14:58.067Z,78.19
2023-02-09T07:18:01.041Z,78.19
2023-02-09T07:21:06.689Z,77.72
2023-02-09T07:24:09.648Z,77.86
2023-02-09T07:27:12.484Z,77.26
2023-02-09T07:30:16.161Z,76.77
2023-02-09T07:33:20.048Z,75.73
2023-02-09T07:36:23.132Z,75.37
2023-02-09T07:39:26.300Z,75.62
2023-02-09T07:42:29.163Z,74.77
2023-02-09T07:45:32.931Z,75.75
2023-02-09T07:48:36.671Z,75.14
2023-02-09T07:51:39.966Z,73.96
2023-02-09T07:54:42.879Z,74.51
2023-02-09T07:57:45.815Z,73.47
2023-02-09T08:00:50.292Z,73.78
2023-02-09T08:03:53.382Z,73.36
2023-02-09T08:06:56.485Z,73.02
2023-02-09T08:09:59.507Z,72.37
2023-02-09T08:13:03.639Z,72.57
2023-02-09T08:16:10.426Z,72.44
2023-02-09T08:19:19.754Z,70.82
2023-02-09T08:22:25.347Z,70.57
2023-02-09T08:25:28.280Z,69.12
2023-02-09T08:28:43.297Z,68.42
2023-02-09T08:31:47.229Z,68.51
2023-02-09T08:34:50.085Z,69.21
2023-02-09T08:37:53.109Z,67.16
2023-02-09T08:40:55.963Z,67.46
2023-02-09T08:43:58.959Z,67.53
2023-02-09T08:47:01.914Z,66.92
2023-02-09T08:50:05.269Z,65.75
2023-02-09T08:53:08.149Z,65.76
2023-02-09T08:56:11.026Z,64.85
2023-02-09T08:59:13.868Z,62.40
2023-02-09T09:02:16.779Z,62.70
2023-02-09T09:05:41.709Z,63.62
2023-02-09T09:08:56.288Z,61.88
2023-02-09T09:12:11.126Z,62.20
2023-02-09T09:15:25.575Z,61.57
2023-02-09T09:18:47.363Z,61.48
2023-02-09T09:22:05.642Z,61.12
2023-02-09T09:25:27.985Z,61.30
2023-02-09T09:28:53.077Z,60.53
2023-02-09T09:32:03.545Z,59.67
2023-02-09T09:35:15.503Z,59.95
2023-02-09T09:38:26.755Z,59.45
2023-02-09T09:41:55.543Z,58.38
2023-02-09T09:45:21.243Z,58.17
2023-02-09T09:48:55.605Z,56.68
2023-02-09T09:52:31.846Z,57.84
2023-02-09T09:55:59.067Z,58.14
2023-02-09T09:59:19.519Z,55.93
2023-02-09T10:02:40.272Z,56.59
2023-02-09T10:05:44.972Z,55.25
2023-02-09T10:09:10.859Z,55.02
2023-02-09T10:12:31.765Z,55.14
2023-02-09T10:15:36.907Z,55.13
2023-02-09T10:18:40.723Z,54.39
2023-02-09T10:21:43.706Z,52.69
2023-02-09T10:24:46.729Z,54.22
2023-02-09T10:27:49.592Z,54.52
2023-02-09T10:30:55.036Z,53.76
2023-02-09T10:34:04.471Z,53.20
2023-02-09T10:37:16.498Z,54.01
2023-02-09T10:40:33.396Z,53.93
2023-02-09T10:43:36.480Z,53.66
2023-02-09T10:46:40.788Z,54.62
2023-02-09T10:49:43.711Z,53.44
2023-02-09T10:52:59.495Z,54.73
2023-02-09T10:56:07.364Z,53.94
2023-02-09T10:59:22.498Z,55.18
2023-02-09T11:02:48.715Z,54.73
2023-02-09T11:06:01.979Z,54.20
2023-02-09T11:09:13.492Z,54.41
2023-02-09T11:12:16.433Z,54.49
2023-02-09T11:15:27.510Z,54.09
2023-02-09T11:18:34.419Z,54.02
2023-02-09T11:22:00.436Z,54.24
2023-02-09T11:25:17.980Z,52.71
2023-02-09T11:28:47.951Z,52.63
2023-02-09T11:31:56.676Z,54.20
2023-02-09T11:35:09.234Z,53.35
2023-02-09T11:38:21.530Z,54.20
2023-02-09T11:41:52.084Z,52.71
2023-02-09T11:45:01.699Z,52.41
2023-02-09T11:48:09.146Z,53.39
2023-02-09T11:51:23.616Z,53.06
2023-02-09T11:54:32.861Z,53.34
2023-02-09T11:57:42.103Z,52.91
2023-02-09T12:01:14.389Z,52.51
2023-02-09T12:04:24.976Z,53.04
2023-02-09T12:07:52.678Z,51.89
2023-02-09T12:11:27.277Z,51.82
2023-02-09T12:14:55.552Z,51.75
2023-02-09T12:18:04.160Z,52.04
2023-02-09T12:21:08.126Z,51.69
2023-02-09T12:24:40.337Z,50.89
2023-02-09T12:28:04.501Z,50.78
2023-02-09T12:31:09.511Z,51.18
2023-02-09T12:34:21.124Z,52.12
2023-02-09T12:37:29.389Z,52.36
2023-02-09T12:40:38.196Z,51.03
2023-02-09T12:43:42.071Z,51.47
2023-02-09T12:46:44.998Z,51.00
2023-02-09T12:49:48.066Z,50.87
2023-02-09T12:53:36.261Z,50.88
2023-02-09T12:56:39.194Z,51.04
2023-02-09T12:59:43.368Z,51.05
2023-02-09T13:02:50.184Z,51.52
2023-02-09T13:06:26.471Z,51.03
2023-02-09T13:09:36.924Z,51.24
2023-02-09T13:13:41.291Z,51.55
2023-02-09T13:17:49.850Z,51.94
2023-02-09T13:22:24.042Z,51.81
2023-02-09T13:25:51.639Z,51.49
2023-02-09T13:29:37.441Z,52.26
2023-02-09T13:33:05.837Z,51.56
2023-02-09T13:36:32.569Z,50.99
2023-02-09T13:39:45.354Z,50.81
2023-02-09T13:43:17.657Z,51.28
2023-02-09T13:46:32.640Z,51.41
2023-02-09T13:50:45.797Z,51.32
2023-02-09T13:54:18.536Z,51.30
2023-02-09T13:58:18.942Z,51.13
2023-02-09T14:01:58.075Z,51.35
2023-02-09T14:05:05.238Z,51.79
2023-02-09T14:08:11.658Z,51.36
2023-02-09T14:11:33.204Z,51.26
2023-02-09T14:15:24.395Z,51.58
2023-02-09T14:19:40.522Z,51.59
2023-02-09T14:23:14.865Z,51.60
2023-02-09T14:26:44.077Z,51.51
2023-02-09T14:30:36.407Z,52.55
2023-02-09T14:34:28.051Z,52.85
2023-02-09T14:37:49.065Z,53.21
2023-02-09T14:41:46.733Z,52.98
2023-02-09T14:45:00.098Z,53.42
2023-02-09T14:48:15.639Z,53.59
2023-02-09T14:51:19.257Z,53.25
2023-02-09T14:54:27.994Z,54.06
2023-02-09T14:57:32.824Z,53.56
2023-02-09T15:00:35.643Z,53.77
2023-02-09T15:03:38.701Z,54.20
2023-02-09T15:06:49.942Z,54.37
2023-02-09T15:10:47.046Z,54.84
2023-02-09T15:14:06.638Z,55.11
2023-02-09T15:17:13.355Z,55.22
2023-02-09T15:20:18.003Z,55.52
2023-02-09T15:23:20.848Z,55.78
2023-02-09T15:26:26.898Z,55.54
2023-02-09T15:29:30.885Z,55.48
2023-02-09T15:32:33.823Z,55.67
2023-02-09T15:35:38.019Z,56.37
2023-02-09T15:38:41.008Z,56.44
2023-02-09T15:42:02.635Z,56.77
2023-02-09T15:45:43.094Z,56.95
2023-02-09T15:48:46.099Z,57.36
2023-02-09T15:51:49.060Z,57.71
2023-02-09T15:54:53.149Z,57.71
2023-02-09T15:57:57.073Z,58.32
2023-02-09T16:01:00.105Z,58.52
2023-02-09T16:04:13.821Z,59.46
2023-02-09T16:07:26.382Z,59.21
2023-02-09T16:10:49.813Z,59.71
2023-02-09T16:14:49.835Z,59.98
2023-02-09T16:18:22.145Z,60.05
2023-02-09T16:22:07.382Z,60.66
2023-02-09T16:25:35.949Z,61.31
2023-02-09T16:28:48.205Z,61.37
2023-02-09T16:31:56.943Z,61.26
2023-02-09T16:35:31.021Z,61.51
2023-02-09T16:39:34.078Z,61.50
2023-02-09T16:42:54.520Z,61.73
2023-02-09T16:46:42.689Z,61.69
2023-02-09T16:50:06.845Z,61.99
2023-02-09T16:53:52.081Z,62.06
2023-02-09T16:57:40.026Z,62.02
2023-02-09T17:01:16.991Z,61.97
2023-02-09T17:04:38.462Z,62.11
2023-02-09T17:11:25.870Z,62.20
2023-02-09T17:14:28.907Z,62.23
2023-02-09T17:17:31.860Z,62.28
2023-02-09T17:20:40.221Z,62.14
2023-02-09T17:23:44.050Z,62.26
2023-02-09T17:26:47.129Z,62.41
2023-02-09T17:29:50.118Z,62.37
2023-02-09T17:33:01.401Z,62.23
2023-02-09T17:36:25.083Z,62.37
2023-02-09T17:39:29.915Z,62.14
2023-02-09T17:42:37.059Z,62.31
2023-02-09T17:45:40.311Z,62.43
2023-02-09T17:48:43.555Z,62.43
2023-02-09T17:51:47.672Z,62.72
2023-02-09T17:54:51.105Z,63.00
2023-02-09T17:58:00.137Z,62.80
2023-02-09T18:01:20.653Z,62.78
2023-02-09T18:04:27.218Z,62.85
2023-02-09T18:07:30.411Z,62.83
2023-02-09T18:10:33.456Z,62.98
2023-02-09T18:13:36.905Z,62.83
2023-02-09T18:16:41.423Z,62.99
2023-02-09T18:19:44.747Z,62.96
2023-02-09T18:22:47.993Z,63.19
2023-02-09T18:25:51.400Z,62.98
2023-02-09T18:29:57.802Z,62.81
2023-02-09T18:33:15.609Z,62.97
2023-02-09T18:36:28.391Z,62.87
2023-02-09T18:39:48.474Z,62.93
2023-02-09T18:42:53.598Z,62.84
2023-02-09T18:45:58.811Z,62.97
2023-02-09T18:49:09.907Z,62.96
2023-02-09T18:53:10.320Z,62.95
2023-02-09T18:56:40.236Z,62.84
2023-02-09T19:00:22.608Z,62.50
2023-02-09T19:03:25.560Z,62.49
2023-02-09T19:06:28.743Z,62.43
2023-02-09T19:09:31.581Z,62.45
2023-02-09T19:12:35.010Z,62.41
2023-02-09T19:15:39.192Z,62.79
2023-02-09T19:18:42.321Z,62.87
2023-02-09T19:21:45.251Z,62.88
2023-02-09T19:24:48.712Z,62.94
2023-02-09T19:27:53.046Z,63.08
2023-02-09T19:30:56.103Z,63.13
2023-02-09T19:33:59.179Z,62.91
2023-02-09T19:37:08.109Z,63.24
2023-02-09T19:40:21.041Z,63.22
2023-02-09T19:43:23.981Z,62.94
2023-02-09T19:46:27.083Z,62.93
2023-02-09T19:49:30.821Z,62.98
2023-02-09T19:52:37.460Z,62.92
2023-02-09T19:55:40.476Z,63.24
2023-02-09T19:58:44.647Z,63.19
2023-02-09T20:01:47.564Z,63.29
2023-02-09T20:04:50.669Z,63.25
2023-02-09T20:07:54.657Z,63.20
2023-02-09T20:10:58.247Z,63.47
2023-02-09T20:17:08.984Z,63.52
2023-02-09T20:20:12.598Z,63.44
2023-02-09T20:23:15.730Z,63.61
2023-02-09T20:26:26.191Z,63.58
2023-02-09T20:29:29.213Z,63.74
2023-02-09T20:32:31.994Z,63.48
2023-02-09T20:35:34.807Z,63.20
2023-02-09T20:38:37.779Z,63.19
2023-02-09T20:42:00.480Z,63.26
2023-02-09T20:45:22.857Z,63.49
2023-02-09T20:48:25.925Z,63.37
2023-02-09T20:51:28.731Z,63.23
2023-02-09T20:54:32.423Z,63.13
2023-02-09T20:57:35.357Z,63.06
2023-02-09T21:00:38.323Z,63.57
2023-02-09T21:03:41.511Z,63.42
2023-02-09T21:06:44.930Z,63.65
2023-02-09T21:09:47.902Z,63.61
2023-02-09T21:12:50.790Z,63.78
2023-02-09T21:15:53.561Z,63.56
2023-02-09T21:18:57.066Z,63.76
2023-02-09T21:21:59.994Z,63.64
2023-02-09T21:25:02.824Z,63.69
2023-02-09T21:28:05.940Z,63.82
2023-02-09T21:31:11.718Z,63.61
2023-02-09T21:34:16.396Z,63.32
2023-02-09T21:37:19.182Z,63.53
2023-02-09T21:40:23.223Z,63.50
2023-02-09T21:43:26.070Z,63.64
2023-02-09T21:46:29.394Z,63.67
2023-02-09T21:49:32.570Z,63.61
2023-02-09T21:52:35.333Z,63.96
2023-02-09T21:55:38.153Z,63.94
2023-02-09T21:58:41.647Z,64.06
2023-02-09T22:01:44.672Z,64.23
2023-02-09T22:04:49.832Z,64.39
2023-02-09T22:07:53.278Z,64.48
2023-02-09T22:11:00.282Z,64.68
2023-02-09T22:14:03.314Z,64.91
2023-02-09T22:17:06.236Z,64.85
2023-02-09T22:20:09.782Z,65.08
2023-02-09T22:23:13.026Z,65.14
2023-02-09T22:26:15.884Z,65.16
2023-02-09T22:29:19.312Z,65.02
2023-02-09T22:32:22.206Z,65.05
2023-02-09T22:35:25.005Z,65.26
2023-02-09T22:38:27.781Z,65.32
2023-02-09T22:41:31.187Z,65.26
2023-02-09T22:44:34.691Z,65.35
2023-02-09T22:47:37.581Z,65.45
2023-02-09T22:50:40.480Z,65.39
2023-02-09T22:53:43.899Z,65.67
2023-02-09T22:56:47.412Z,65.88
2023-02-09T22:59:50.226Z,65.95
2023-02-09T23:02:53.659Z,65.81
2023-02-09T23:05:56.517Z,66.00
2023-02-09T23:09:03.331Z,66.34
2023-02-09T23:12:06.333Z,66.43
2023-02-09T23:15:09.538Z,66.73
2023-02-09T23:18:12.360Z,66.60
2023-02-09T23:21:16.522Z,66.74
2023-02-09T23:24:21.874Z,67.03
2023-02-09T23:27:25.498Z,66.99
2023-02-09T23:30:28.440Z,67.03
2023-02-09T23:33:31.809Z,67.13
2023-02-09T23:36:35.151Z,67.01
2023-02-09T23:39:37.948Z,67.40
2023-02-09T23:42:40.884Z,67.32
2023-02-09T23:45:43.721Z,67.41
2023-02-09T23:48:48.269Z,67.45
2023-02-09T23:51:51.381Z,67.42
2023-02-09T23:54:54.230Z,67.38
2023-02-09T23:57:57.087Z,67.47
